Time;durP1;ratioP1;P1;durP2;ratioP2;P2;SDS_P1;SDS_P2;PMS_P1;PMS_P2;Temp;Humidity;BMP_temperature;BMP_pressure;BME280_temperature;BME280_humidity;BME280_pressure;Samples;Min_cycle;Max_cycle;Signal;HPM_P1;HPM_P2
2023/12/17 00:00:15;;;;;;;5.90;3.70;;;;;;;18.84;57.97;102702.66;4933896;29;20176;-71
2023/12/17 00:02:40;;;;;;;6.70;3.47;;;;;;;18.81;57.32;102703.31;4928746;29;20612;-73
2023/12/17 00:05:07;;;;;;;6.43;3.10;;;;;;;18.80;57.46;102698.75;4932269;29;20262;-71
2023/12/17 00:07:32;;;;;;;7.43;3.43;;;;;;;18.79;58.05;102699.94;4902992;29;20226;-72
2023/12/17 00:09:58;;;;;;;4.90;3.13;;;;;;;18.78;57.95;102698.25;4933814;29;20864;-71
2023/12/17 00:12:23;;;;;;;4.90;2.63;;;;;;;18.80;57.95;102701.63;4925065;29;20187;-71
2023/12/17 00:14:49;;;;;;;8.57;3.53;;;;;;;18.78;57.96;102700.25;4930920;29;20180;-71
2023/12/17 00:17:14;;;;;;;9.93;4.03;;;;;;;18.79;57.59;102699.94;4915269;29;20271;-71
2023/12/17 00:19:39;;;;;;;6.03;3.70;;;;;;;18.80;57.89;102690.19;4899435;29;20255;-71
2023/12/17 00:22:05;;;;;;;6.80;3.10;;;;;;;18.81;57.72;102685.31;4927156;29;20187;-71
2023/12/17 00:24:30;;;;;;;7.37;3.23;;;;;;;18.78;57.62;102686.81;4922351;29;20187;-71
2023/12/17 00:26:57;;;;;;;5.83;2.93;;;;;;;18.79;58.17;102697.06;4914196;29;20227;-71
2023/12/17 00:29:23;;;;;;;9.07;4.00;;;;;;;18.75;58.15;102698.88;4915863;29;20211;-72
2023/12/17 00:31:48;;;;;;;9.27;3.50;;;;;;;18.78;57.72;102703.97;4930135;28;20425;-71
2023/12/17 00:34:14;;;;;;;6.30;3.37;;;;;;;18.80;57.62;102700.75;4952103;28;20468;-71
2023/12/17 00:36:39;;;;;;;5.50;3.07;;;;;;;18.77;57.47;102705.13;4949575;28;20237;-71
2023/12/17 00:39:04;;;;;;;6.53;3.30;;;;;;;18.77;57.99;102707.97;4945619;28;20215;-71
2023/12/17 00:41:31;;;;;;;5.07;2.90;;;;;;;18.76;57.65;102709.16;4933628;29;20266;-71
2023/12/17 00:43:57;;;;;;;6.97;3.83;;;;;;;18.73;57.92;102708.97;4934295;29;20175;-71
2023/12/17 00:46:22;;;;;;;5.90;3.50;;;;;;;18.79;57.47;102714.25;4960603;28;20422;-71
2023/12/17 00:48:48;;;;;;;5.60;3.50;;;;;;;18.74;57.84;102720.09;4917901;28;20264;-73
2023/12/17 00:51:13;;;;;;;6.10;3.43;;;;;;;18.76;57.72;102711.19;4914851;29;20195;-73
2023/12/17 00:53:39;;;;;;;7.53;3.27;;;;;;;18.73;57.80;102706.97;4945499;29;20202;-72
2023/12/17 00:56:04;;;;;;;4.43;3.30;;;;;;;18.75;58.12;102713.19;4933400;29;20233;-73
2023/12/17 00:58:30;;;;;;;5.80;3.10;;;;;;;18.77;58.07;102710.84;4929787;29;20211;-73
2023/12/17 01:00:55;;;;;;;4.90;2.90;;;;;;;18.73;57.86;102714.69;4933051;28;20164;-73
2023/12/17 01:03:21;;;;;;;8.10;3.30;;;;;;;18.73;57.78;102717.56;4953093;28;20182;-73
2023/12/17 01:05:46;;;;;;;8.70;3.13;;;;;;;18.73;57.90;102718.41;4945009;29;20194;-73
2023/12/17 01:08:12;;;;;;;7.40;3.47;;;;;;;18.74;57.34;102719.25;4942749;28;20687;-73
2023/12/17 01:10:37;;;;;;;8.60;3.23;;;;;;;18.72;58.21;102719.56;4933679;28;20242;-73
2023/12/17 01:13:03;;;;;;;5.30;3.17;;;;;;;18.73;58.05;102723.28;4917776;29;20179;-73
2023/12/17 01:15:28;;;;;;;7.30;3.20;;;;;;;18.74;57.68;102727.81;4917435;29;20172;-74
2023/12/17 01:17:53;;;;;;;8.60;3.20;;;;;;;18.72;58.19;102725.28;4930598;29;20183;-74
2023/12/17 01:20:19;;;;;;;5.93;2.97;;;;;;;18.74;57.90;102725.81;4916599;29;20250;-73
2023/12/17 01:22:44;;;;;;;7.77;3.50;;;;;;;18.71;58.06;102719.91;4950163;28;20171;-74
2023/12/17 01:25:10;;;;;;;6.33;3.20;;;;;;;18.71;57.94;102706.44;4919517;29;20183;-73
2023/12/17 01:27:35;;;;;;;5.90;3.40;;;;;;;18.73;57.42;102718.41;4932388;29;20809;-74
2023/12/17 01:30:01;;;;;;;5.70;3.07;;;;;;;18.73;57.72;102717.56;4951280;29;20211;-74
2023/12/17 01:32:26;;;;;;;7.17;3.37;;;;;;;18.72;57.49;102710.97;4937487;29;20297;-73
2023/12/17 01:34:52;;;;;;;5.13;2.77;;;;;;;18.69;57.95;102719.38;4952357;28;20206;-74
2023/12/17 01:37:17;;;;;;;5.20;2.63;;;;;;;18.69;57.99;102717.38;4919792;28;20239;-74
2023/12/17 01:39:42;;;;;;;5.40;3.20;;;;;;;18.66;57.86;102711.44;4936189;29;20183;-74
2023/12/17 01:42:08;;;;;;;5.60;3.20;;;;;;;18.68;58.06;102715.69;4934107;29;20225;-73
2023/12/17 01:44:33;;;;;;;5.80;3.00;;;;;;;18.71;57.56;102711.31;4917521;29;20183;-73
2023/12/17 01:46:59;;;;;;;5.37;2.73;;;;;;;18.67;58.06;102719.69;4945318;29;20215;-73
2023/12/17 01:49:24;;;;;;;7.60;3.37;;;;;;;18.66;58.53;102726.56;4920571;29;20207;-73
2023/12/17 01:51:50;;;;;;;4.57;2.80;;;;;;;18.67;58.15;102724.56;4936652;29;20226;-74
2023/12/17 01:54:16;;;;;;;6.57;3.00;;;;;;;18.64;58.24;102726.06;4919877;29;20907;-74
2023/12/17 01:56:42;;;;;;;5.10;2.70;;;;;;;18.65;58.18;102724.91;4952040;29;20168;-73
2023/12/17 01:59:07;;;;;;;7.60;3.10;;;;;;;18.66;58.20;102723.72;4936326;29;20155;-73
2023/12/17 02:01:33;;;;;;;5.13;3.00;;;;;;;18.66;57.90;102728.63;4941336;28;20486;-69
2023/12/17 02:03:58;;;;;;;6.33;3.00;;;;;;;18.64;58.30;102726.06;4945468;28;20186;-68
2023/12/17 02:06:23;;;;;;;4.20;2.80;;;;;;;18.66;58.00;102720.03;4956796;28;20187;-69
2023/12/17 02:08:49;;;;;;;9.60;3.30;;;;;;;18.64;57.86;102720.34;4933020;29;20210;-69
2023/12/17 02:11:14;;;;;;;4.70;2.90;;;;;;;18.67;57.99;102724.56;4936435;29;20194;-70
2023/12/17 02:13:40;;;;;;;4.87;3.00;;;;;;;18.63;57.65;102717.81;4951928;28;20183;-69
2023/12/17 02:16:06;;;;;;;6.30;3.20;;;;;;;18.62;58.32;102716.94;4934586;29;20187;-69
2023/12/17 02:18:31;;;;;;;7.10;3.43;;;;;;;18.62;58.06;102714.09;4951724;28;20198;-68
2023/12/17 02:20:57;;;;;;;7.70;3.03;;;;;;;18.63;57.54;102717.81;4935866;29;20197;-72
2023/12/17 02:23:22;;;;;;;4.67;2.57;;;;;;;18.61;58.57;102720.97;4936103;29;20167;-69
2023/12/17 02:25:48;;;;;;;7.33;2.83;;;;;;;18.63;58.08;102723.53;4951538;29;20171;-71
2023/12/17 02:28:13;;;;;;;4.60;3.03;;;;;;;18.61;57.96;102737.31;4929441;29;20209;-69
2023/12/17 02:30:39;;;;;;;5.10;2.90;;;;;;;18.61;58.23;102737.31;4936501;29;20671;-70
2023/12/17 02:33:04;;;;;;;4.40;2.60;;;;;;;18.60;57.96;102747.91;4954380;28;20177;-70
2023/12/17 02:35:29;;;;;;;4.77;2.60;;;;;;;18.59;58.30;102754.81;4932539;29;20203;-69
2023/12/17 02:37:55;;;;;;;5.37;3.07;;;;;;;18.58;58.30;102753.13;4935509;29;20250;-70
2023/12/17 02:40:20;;;;;;;5.40;2.60;;;;;;;18.62;57.88;102745.56;4947200;28;20183;-68
2023/12/17 02:42:46;;;;;;;5.90;2.80;;;;;;;18.59;57.76;102746.22;4941027;29;20199;-71
2023/12/17 02:45:12;;;;;;;5.00;2.93;;;;;;;18.61;57.82;102738.16;4919710;28;20191;-68
2023/12/17 02:47:37;;;;;;;4.90;2.50;;;;;;;18.59;57.48;102743.34;4955521;28;20265;-68
2023/12/17 02:50:03;;;;;;;6.10;2.63;;;;;;;18.56;58.30;102741.13;4931000;29;20446;-69
2023/12/17 02:52:28;;;;;;;4.63;2.80;;;;;;;18.59;58.11;102746.22;4920311;29;20163;-70
2023/12/17 02:54:54;;;;;;;5.00;2.80;;;;;;;18.61;57.71;102745.91;4936427;29;20182;-68
2023/12/17 02:57:24;;;;;;;4.77;2.77;;;;;;;18.60;58.14;102736.47;4936342;29;20187;-69
2023/12/17 02:59:53;;;;;;;4.37;2.60;;;;;;;18.59;57.75;102728.19;4933129;29;20179;-69
2023/12/17 03:02:18;;;;;;;5.33;2.60;;;;;;;18.55;58.33;102733.72;4948938;28;20422;-68
2023/12/17 03:04:44;;;;;;;6.30;3.37;;;;;;;18.56;57.89;102741.13;4971379;28;20472;-69
2023/12/17 03:07:09;;;;;;;5.43;2.97;;;;;;;18.54;58.09;102725.44;4933966;28;20199;-70
2023/12/17 03:09:35;;;;;;;5.90;2.93;;;;;;;18.55;57.99;102721.41;4951027;29;20634;-75
2023/12/17 03:12:01;;;;;;;6.27;3.07;;;;;;;18.53;57.83;102721.78;4918128;29;20819;-75
2023/12/17 03:14:27;;;;;;;6.07;2.63;;;;;;;18.54;57.94;102714.00;4949334;29;20242;-74
2023/12/17 03:16:52;;;;;;;3.80;2.43;;;;;;;18.54;58.08;102705.44;4917691;29;20439;-74
2023/12/17 03:19:18;;;;;;;5.10;2.60;;;;;;;18.54;58.01;102709.16;4932681;29;20581;-73
2023/12/17 03:21:43;;;;;;;5.53;2.80;;;;;;;18.53;57.79;102698.88;4932910;29;20179;-74
2023/12/17 03:24:08;;;;;;;4.30;2.70;;;;;;;18.50;58.56;102690.94;4933211;29;20159;-74
2023/12/17 03:26:34;;;;;;;3.80;2.53;;;;;;;18.52;57.74;102688.59;4917417;29;20194;-74
2023/12/17 03:28:59;;;;;;;5.30;2.70;;;;;;;18.52;57.83;102690.63;4934500;29;20207;-75
2023/12/17 03:31:25;;;;;;;6.10;3.10;;;;;;;18.51;58.19;102689.75;4935101;28;20210;-74
2023/12/17 03:33:50;;;;;;;4.37;2.70;;;;;;;18.54;57.77;102686.25;4915431;29;20214;-74
2023/12/17 03:36:16;;;;;;;4.90;2.80;;;;;;;18.52;57.64;102676.31;4918860;29;20179;-74
2023/12/17 03:38:42;;;;;;;3.77;2.27;;;;;;;18.49;58.21;102672.09;4940239;28;20247;-75
2023/12/17 03:41:21;;;;;;;4.90;2.40;;;;;;;18.50;57.59;102673.78;4931494;29;20227;-75
2023/12/17 03:43:49;;;;;;;5.07;2.67;;;;;;;18.51;58.10;102675.44;4919456;29;20453;-75
2023/12/17 03:46:14;;;;;;;3.77;2.57;;;;;;;18.49;57.76;102669.22;4926451;28;20501;-74
2023/12/17 03:48:40;;;;;;;5.17;2.80;;;;;;;18.51;57.85;102666.88;4953357;28;20441;-74
2023/12/17 03:51:05;;;;;;;4.67;2.67;;;;;;;18.51;57.41;102663.19;4938954;28;20187;-75
2023/12/17 03:53:31;;;;;;;6.43;2.97;;;;;;;18.50;57.72;102665.19;4915564;29;20164;-75
2023/12/17 03:55:56;;;;;;;6.03;2.43;;;;;;;18.48;58.31;102664.69;4918711;29;20188;-74
2023/12/17 03:58:21;;;;;;;4.13;2.40;;;;;;;18.47;57.96;102654.38;4950218;29;20175;-75
2023/12/17 04:00:47;;;;;;;5.43;2.67;;;;;;;18.49;57.54;102654.06;4934222;29;20171;-75
2023/12/17 04:03:12;;;;;;;4.27;2.60;;;;;;;18.51;58.04;102652.56;4933597;29;20168;-74
2023/12/17 04:05:38;;;;;;;4.80;2.70;;;;;;;18.49;57.61;102657.78;4947738;28;20602;-74
2023/12/17 04:08:03;;;;;;;5.50;2.60;;;;;;;18.47;58.02;102647.84;4933225;29;20195;-75
2023/12/17 04:10:28;;;;;;;6.20;2.43;;;;;;;18.48;58.12;102635.22;4931402;28;20197;-75
2023/12/17 04:12:54;;;;;;;4.07;2.50;;;;;;;18.47;57.59;102640.06;4931593;29;20179;-75
2023/12/17 04:15:19;;;;;;;2.97;2.10;;;;;;;18.48;57.67;102650.38;4949310;29;20178;-75
2023/12/17 04:17:45;;;;;;;5.00;2.30;;;;;;;18.49;57.56;102654.91;4933014;29;20196;-74
2023/12/17 04:20:11;;;;;;;6.20;3.20;;;;;;;18.49;57.93;102654.91;4945841;28;20188;-75
2023/12/17 04:22:36;;;;;;;5.87;3.07;;;;;;;18.49;58.28;102659.78;4933827;29;21050;-75
2023/12/17 04:25:02;;;;;;;5.63;2.97;;;;;;;18.49;57.94;102659.78;4950019;29;20175;-75
2023/12/17 04:27:27;;;;;;;5.00;2.60;;;;;;;18.48;58.15;102664.69;4951271;28;20186;-75
2023/12/17 04:29:52;;;;;;;5.00;2.50;;;;;;;18.48;58.02;102658.09;4927691;29;20184;-74
2023/12/17 04:32:18;;;;;;;2.87;2.10;;;;;;;18.48;57.78;102664.69;4938459;28;20236;-75
2023/12/17 04:34:43;;;;;;;5.80;2.77;;;;;;;18.45;57.90;102671.03;4934959;29;20258;-74
2023/12/17 04:37:09;;;;;;;5.20;2.60;;;;;;;18.47;57.93;102667.84;4933409;29;20218;-74
2023/12/17 04:39:34;;;;;;;3.90;2.37;;;;;;;18.47;57.90;102674.41;4932262;29;20206;-75
2023/12/17 04:42:00;;;;;;;3.90;2.13;;;;;;;18.48;58.23;102669.53;4918452;29;20179;-75
2023/12/17 04:44:25;;;;;;;4.33;2.10;;;;;;;18.50;57.75;102678.63;4949260;28;20189;-77
2023/12/17 04:46:51;;;;;;;3.80;2.67;;;;;;;18.49;57.91;102672.09;4938894;29;20187;-75
2023/12/17 04:49:16;;;;;;;3.90;2.23;;;;;;;18.50;57.89;102668.06;4932932;29;20687;-74
2023/12/17 04:51:41;;;;;;;6.80;2.30;;;;;;;18.45;57.67;102667.31;4918074;29;20172;-74
2023/12/17 04:54:07;;;;;;;4.33;2.43;;;;;;;18.46;57.73;102672.72;4917349;29;20195;-75
2023/12/17 04:56:32;;;;;;;3.73;1.93;;;;;;;18.49;57.52;102676.94;4949882;29;20164;-74
2023/12/17 04:58:58;;;;;;;4.33;2.43;;;;;;;18.46;57.76;102678.44;4935448;29;20160;-75
2023/12/17 05:01:23;;;;;;;4.20;2.30;;;;;;;18.47;57.53;102667.84;4942461;28;20545;-74
2023/12/17 05:03:49;;;;;;;3.20;2.20;;;;;;;18.46;57.97;102667.00;4950594;28;20184;-75
2023/12/17 05:06:14;;;;;;;5.27;2.50;;;;;;;18.45;58.17;102673.91;4920461;29;20615;-74
2023/12/17 05:08:40;;;;;;;3.90;2.33;;;;;;;18.47;57.62;102665.81;4936030;29;20203;-73
2023/12/17 05:11:05;;;;;;;4.83;2.30;;;;;;;18.45;57.93;102659.59;4950372;28;20194;-75
2023/12/17 05:13:31;;;;;;;4.20;2.40;;;;;;;18.46;58.24;102652.69;4941351;29;20207;-75
2023/12/17 05:15:56;;;;;;;4.57;2.70;;;;;;;18.46;58.26;102649.84;4952415;29;20182;-75
2023/12/17 05:18:21;;;;;;;4.43;2.40;;;;;;;18.47;57.55;102645.81;4936722;29;20179;-75
2023/12/17 05:20:48;;;;;;;4.87;2.40;;;;;;;18.48;57.90;102647.50;4922650;29;20186;-75
2023/12/17 05:23:13;;;;;;;4.63;2.73;;;;;;;18.48;57.79;102658.97;4942245;28;20610;-75
2023/12/17 05:25:39;;;;;;;3.70;2.30;;;;;;;18.47;57.79;102651.53;4920603;29;20418;-75
2023/12/17 05:28:05;;;;;;;3.00;1.97;;;;;;;18.50;57.63;102645.16;4936111;29;20369;-74
2023/12/17 05:30:30;;;;;;;4.20;2.33;;;;;;;18.47;57.46;102645.81;4935923;29;20407;-74
2023/12/17 05:32:56;;;;;;;3.00;2.10;;;;;;;18.50;57.48;102650.03;4917429;29;20290;-77
2023/12/17 05:35:21;;;;;;;5.43;2.87;;;;;;;18.51;56.99;102644.00;4932450;29;20196;-74
2023/12/17 05:37:46;;;;;;;5.40;2.60;;;;;;;18.47;57.73;102642.94;4925532;29;20234;-75
2023/12/17 05:40:12;;;;;;;4.53;2.20;;;;;;;18.49;57.38;102640.63;4936246;29;20183;-75
2023/12/17 05:42:38;;;;;;;3.30;2.20;;;;;;;18.47;57.68;102645.81;4917902;29;20191;-74
2023/12/17 05:45:03;;;;;;;4.07;2.33;;;;;;;18.48;57.49;102638.06;4950116;28;20183;-75
2023/12/17 05:47:30;;;;;;;4.60;2.30;;;;;;;18.48;57.82;102638.94;4958493;28;20643;-76
2023/12/17 05:49:55;;;;;;;4.10;2.20;;;;;;;18.50;57.54;102642.31;4922048;29;20270;-74
2023/12/17 05:52:21;;;;;;;4.10;2.37;;;;;;;18.48;57.34;102643.78;4936518;29;20430;-75
2023/12/17 05:54:46;;;;;;;3.60;2.10;;;;;;;18.49;57.80;102642.63;4920042;29;20190;-75
2023/12/17 05:57:12;;;;;;;3.63;2.30;;;;;;;18.48;57.72;102641.78;4920464;29;20548;-75
2023/12/17 05:59:37;;;;;;;3.50;2.10;;;;;;;18.49;57.57;102637.75;4921718;29;20624;-74
2023/12/17 06:02:03;;;;;;;3.80;2.00;;;;;;;18.53;57.26;102633.09;4931626;28;20589;-74
2023/12/17 06:04:28;;;;;;;5.57;2.83;;;;;;;18.49;57.23;102640.63;4954434;28;20214;-75
2023/12/17 06:06:57;;;;;;;4.20;2.30;;;;;;;18.50;57.50;102639.44;4941756;29;20186;-75
2023/12/17 06:09:23;;;;;;;3.33;2.13;;;;;;;18.49;57.33;102649.19;4921446;29;20215;-74
2023/12/17 06:11:49;;;;;;;3.63;2.23;;;;;;;18.48;57.81;102653.25;4935106;29;20419;-74
2023/12/17 06:14:18;;;;;;;3.60;2.47;;;;;;;18.49;57.61;102648.34;4935885;29;20608;-74
2023/12/17 06:16:44;;;;;;;3.17;2.20;;;;;;;18.52;57.52;102644.84;4949433;28;20511;-75
2023/12/17 06:19:13;;;;;;;3.77;2.40;;;;;;;18.51;57.96;102646.03;4918362;29;21017;-75
2023/12/17 06:21:38;;;;;;;5.33;3.10;;;;;;;18.49;57.29;102648.34;4935656;29;20337;-75
2023/12/17 06:24:04;;;;;;;4.07;2.47;;;;;;;18.50;57.08;102653.75;4935009;29;20403;-75
2023/12/17 06:26:29;;;;;;;3.13;1.93;;;;;;;18.48;57.46;102658.97;4933460;29;20187;-75
2023/12/17 06:28:55;;;;;;;4.13;2.30;;;;;;;18.50;57.47;102662.31;4934941;29;20238;-76
2023/12/17 06:31:20;;;;;;;2.90;2.10;;;;;;;18.49;57.28;102651.19;4935235;28;20190;-75
2023/12/17 06:33:46;;;;;;;4.47;2.00;;;;;;;18.50;57.54;102653.75;4935239;29;20601;-75
2023/12/17 06:36:11;;;;;;;3.83;2.27;;;;;;;18.49;57.43;102654.06;4935758;29;20186;-75
2023/12/17 06:38:38;;;;;;;4.30;2.37;;;;;;;18.50;57.47;102656.59;4933741;29;20226;-74
2023/12/17 06:41:03;;;;;;;5.40;2.03;;;;;;;18.56;58.03;102663.88;4935617;29;20176;-75
2023/12/17 06:43:29;;;;;;;4.30;2.30;;;;;;;18.53;57.25;102666.56;4933957;28;20434;-75
2023/12/17 06:45:54;;;;;;;3.73;2.73;;;;;;;18.51;57.44;102674.63;4948018;28;20188;-76
2023/12/17 06:48:20;;;;;;;4.00;2.10;;;;;;;18.51;57.40;102669.72;4924163;29;20203;-75
2023/12/17 06:50:45;;;;;;;3.73;2.30;;;;;;;18.48;57.70;102678.13;4934787;29;20179;-75
2023/12/17 06:53:15;;;;;;;6.03;2.20;;;;;;;18.51;57.40;102680.34;4964407;28;20199;-75
2023/12/17 06:55:44;;;;;;;3.10;2.00;;;;;;;18.52;58.04;102676.31;4934919;29;20851;-74
2023/12/17 06:58:09;;;;;;;3.93;2.20;;;;;;;18.49;57.62;102674.09;4934783;29;20883;-75
2023/12/17 07:00:35;;;;;;;3.97;2.30;;;;;;;18.53;57.35;102683.72;4934368;29;20414;-75
2023/12/17 07:03:01;;;;;;;4.03;2.67;;;;;;;18.54;57.48;102685.41;4927113;29;20183;-75
2023/12/17 07:05:27;;;;;;;5.00;2.80;;;;;;;18.54;57.06;102682.53;4934459;29;20183;-74
2023/12/17 07:07:52;;;;;;;4.70;2.43;;;;;;;18.49;57.53;102679.81;4932224;29;20992;-75
2023/12/17 07:10:18;;;;;;;3.30;2.30;;;;;;;18.51;57.38;102681.19;4935045;29;20175;-75
2023/12/17 07:12:43;;;;;;;4.23;2.50;;;;;;;18.52;57.93;102677.13;4935005;29;20175;-74
2023/12/17 07:15:09;;;;;;;4.43;2.60;;;;;;;18.52;57.28;102671.41;4937379;28;20187;-74
2023/12/17 07:17:35;;;;;;;4.03;2.70;;;;;;;18.53;57.09;102670.28;4947667;29;20203;-74
2023/12/17 07:20:00;;;;;;;4.03;2.40;;;;;;;18.54;56.73;102669.09;4949187;28;20439;-74
2023/12/17 07:22:26;;;;;;;4.43;2.17;;;;;;;18.51;57.39;102664.00;4920809;29;20183;-75
2023/12/17 07:24:51;;;;;;;4.47;2.63;;;;;;;18.55;57.10;102670.78;4946658;28;20234;-75
2023/12/17 07:27:16;;;;;;;5.10;2.57;;;;;;;18.53;57.46;102666.56;4933816;29;20171;-74
2023/12/17 07:29:42;;;;;;;4.63;2.33;;;;;;;18.53;57.52;102661.69;4933093;29;20203;-74
2023/12/17 07:32:08;;;;;;;3.00;1.93;;;;;;;18.56;57.36;102658.16;4945432;28;20181;-74
2023/12/17 07:34:33;;;;;;;3.30;2.03;;;;;;;18.56;57.32;102658.16;4954541;28;20202;-74
2023/12/17 07:37:02;;;;;;;3.00;1.97;;;;;;;18.55;56.94;102658.47;4901700;29;20259;-74
2023/12/17 07:39:27;;;;;;;3.73;2.30;;;;;;;18.50;57.46;102659.47;4935956;28;20556;-75
2023/12/17 07:41:53;;;;;;;3.37;2.30;;;;;;;18.50;57.49;102667.19;4952966;28;20446;-74
2023/12/17 07:44:18;;;;;;;3.80;2.40;;;;;;;18.54;56.84;102666.25;4928409;28;20197;-75
2023/12/17 07:46:44;;;;;;;3.37;1.70;;;;;;;18.52;57.35;102665.69;4950980;28;20174;-74
2023/12/17 07:49:09;;;;;;;3.23;2.20;;;;;;;18.50;57.02;102656.59;4957283;28;20233;-68
2023/12/17 07:51:35;;;;;;;3.47;2.23;;;;;;;18.52;56.95;102653.44;4953163;28;20166;-69
2023/12/17 07:54:00;;;;;;;4.60;2.47;;;;;;;18.52;57.28;102659.97;4934041;28;20175;-68
2023/12/17 07:56:26;;;;;;;3.70;2.10;;;;;;;18.53;56.71;102661.69;4934298;29;20251;-69
2023/12/17 07:58:52;;;;;;;3.20;2.13;;;;;;;18.54;57.04;102659.66;4934567;29;20350;-69
2023/12/17 08:01:26;;;;;;;3.37;2.40;;;;;;;18.55;56.96;102667.94;4960419;28;20184;-68
2023/12/17 08:03:51;;;;;;;4.93;2.97;;;;;;;18.56;56.77;102665.91;4953081;28;20190;-68
2023/12/17 08:06:17;;;;;;;3.13;2.00;;;;;;;18.53;57.25;102673.13;4919257;29;20426;-69
2023/12/17 08:08:42;;;;;;;3.80;2.40;;;;;;;18.54;57.09;102666.25;4929893;28;20203;-68
2023/12/17 08:11:11;;;;;;;3.27;2.00;;;;;;;18.53;57.59;102672.28;4954224;28;20177;-68
2023/12/17 08:13:37;;;;;;;3.23;2.07;;;;;;;18.56;56.73;102674.50;4936350;28;20182;-70
2023/12/17 08:16:03;;;;;;;3.40;1.80;;;;;;;18.53;57.28;102678.00;4953926;28;20402;-68
2023/12/17 08:18:28;;;;;;;2.50;1.70;;;;;;;18.55;56.97;102669.91;4919267;29;20189;-69
2023/12/17 08:20:54;;;;;;;3.40;2.00;;;;;;;18.55;57.06;102672.78;4921938;29;20182;-69
2023/12/17 08:23:19;;;;;;;3.23;2.10;;;;;;;18.55;57.11;102679.38;4934919;29;20155;-69
2023/12/17 08:25:44;;;;;;;3.80;2.57;;;;;;;18.58;56.67;102678.72;4903361;29;20183;-69
2023/12/17 08:28:10;;;;;;;3.50;1.77;;;;;;;18.53;56.95;102684.56;4919173;29;20202;-69
2023/12/17 08:30:37;;;;;;;3.30;2.10;;;;;;;18.55;56.75;102673.66;4930926;28;20185;-68
2023/12/17 08:33:03;;;;;;;4.47;2.33;;;;;;;18.57;56.84;102670.47;4938529;28;20264;-68
2023/12/17 08:35:31;;;;;;;3.80;2.20;;;;;;;18.57;57.37;102673.31;4933235;29;20829;-69
2023/12/17 08:38:03;;;;;;;4.27;2.23;;;;;;;18.55;56.76;102670.78;4930234;28;20229;-68
2023/12/17 08:40:29;;;;;;;3.17;2.30;;;;;;;18.56;57.07;102663.88;4927874;28;20414;-69
2023/12/17 08:42:54;;;;;;;3.03;2.00;;;;;;;18.58;57.19;102675.88;4941294;28;20820;-70
2023/12/17 08:45:19;;;;;;;3.97;2.00;;;;;;;18.54;57.43;102679.69;4949748;28;20185;-69
2023/12/17 08:47:45;;;;;;;3.47;2.07;;;;;;;18.54;56.63;102673.97;4944280;28;20193;-69
2023/12/17 08:50:10;;;;;;;2.93;1.83;;;;;;;18.54;57.02;102669.09;4949839;28;20191;-69
2023/12/17 08:52:36;;;;;;;4.03;2.20;;;;;;;18.54;56.89;102674.81;4942064;28;20174;-68
2023/12/17 08:55:02;;;;;;;3.13;2.17;;;;;;;18.57;56.33;102676.19;4939911;28;20221;-69
2023/12/17 08:57:27;;;;;;;3.60;2.00;;;;;;;18.59;56.87;102668.97;4921306;29;20434;-69
2023/12/17 08:59:53;;;;;;;3.20;2.17;;;;;;;18.55;57.14;102667.94;4971717;28;20178;-68
2023/12/17 09:02:19;;;;;;;3.00;2.10;;;;;;;18.64;56.41;102668.84;4953732;28;20193;-69
2023/12/17 09:04:44;;;;;;;2.40;1.53;;;;;;;18.60;56.53;102666.94;4988685;28;20425;-69
2023/12/17 09:07:10;;;;;;;3.40;2.00;;;;;;;18.58;56.88;102667.28;4938246;28;20198;-71
2023/12/17 09:09:35;;;;;;;3.40;1.77;;;;;;;18.64;56.13;102671.72;4956903;28;20194;-69
2023/12/17 09:12:01;;;;;;;2.90;2.00;;;;;;;18.60;56.77;102661.22;4925197;28;20178;-72
2023/12/17 09:14:26;;;;;;;2.90;1.90;;;;;;;18.57;57.27;102667.59;4941440;28;20244;-70
2023/12/17 09:16:52;;;;;;;3.17;1.80;;;;;;;18.59;57.18;102670.97;4937301;28;20549;-69
2023/12/17 09:19:17;;;;;;;3.07;2.10;;;;;;;18.55;56.79;102661.34;4941478;28;20697;-68
2023/12/17 09:21:42;;;;;;;2.73;1.97;;;;;;;18.59;56.59;102657.53;4955474;28;20698;-68
2023/12/17 09:24:08;;;;;;;3.07;2.07;;;;;;;18.60;56.52;102656.34;4940678;28;20601;-70
2023/12/17 09:26:33;;;;;;;3.67;2.10;;;;;;;18.58;56.81;102664.44;4925189;28;20633;-68
2023/12/17 09:28:59;;;;;;;2.60;1.90;;;;;;;18.57;56.98;102657.00;4953681;28;20876;-69
2023/12/17 09:31:24;;;;;;;2.77;1.70;;;;;;;18.57;57.13;102661.88;4956766;28;20178;-69
2023/12/17 09:33:50;;;;;;;3.47;1.93;;;;;;;18.55;56.92;102665.06;4939519;28;20202;-69
2023/12/17 09:36:16;;;;;;;4.03;1.93;;;;;;;18.53;57.05;102670.28;4941054;28;20171;-68
2023/12/17 09:38:42;;;;;;;3.03;2.00;;;;;;;18.57;57.19;102668.44;4956011;28;20273;-68
2023/12/17 09:41:08;;;;;;;4.70;2.23;;;;;;;18.64;56.80;102670.84;4940794;28;20504;-69
2023/12/17 09:43:33;;;;;;;4.03;2.10;;;;;;;18.62;56.72;102665.44;4936251;28;20948;-69
2023/12/17 09:45:59;;;;;;;3.00;1.80;;;;;;;18.61;56.87;102660.06;4956008;28;20429;-69
2023/12/17 09:48:25;;;;;;;2.73;1.90;;;;;;;18.60;56.53;102659.22;4955953;28;20205;-69
2023/12/17 09:50:50;;;;;;;2.90;2.00;;;;;;;18.58;57.28;102664.44;4937033;28;20290;-69
2023/12/17 09:53:15;;;;;;;4.27;1.90;;;;;;;18.60;56.60;102659.22;4939363;28;20182;-69
2023/12/17 09:55:41;;;;;;;3.40;1.97;;;;;;;18.59;56.80;102671.84;4926636;28;20256;-68
2023/12/17 09:58:06;;;;;;;3.93;2.30;;;;;;;18.57;57.20;102659.84;4940705;28;20182;-69
2023/12/17 10:00:32;;;;;;;2.77;1.80;;;;;;;18.59;57.04;102665.25;4940626;28;20591;-68
2023/12/17 10:03:08;;;;;;;3.17;1.97;;;;;;;18.61;56.69;102666.63;4954397;28;20178;-70
2023/12/17 10:05:34;;;;;;;3.50;1.70;;;;;;;18.62;56.72;102662.59;4906743;29;20186;-69
2023/12/17 10:08:00;;;;;;;3.47;1.90;;;;;;;18.60;56.91;102652.63;4943983;28;20561;-69
2023/12/17 10:10:26;;;;;;;4.27;2.40;;;;;;;18.62;56.36;102645.41;4940426;28;20194;-68
2023/12/17 10:12:51;;;;;;;4.00;2.53;;;;;;;18.61;57.04;102657.22;4940600;28;20874;-68
2023/12/17 10:15:18;;;;;;;3.33;2.30;;;;;;;18.60;56.95;102650.63;4932595;29;20242;-69
2023/12/17 10:17:43;;;;;;;2.97;2.07;;;;;;;18.60;56.55;102633.47;4936920;29;20167;-69
2023/12/17 10:20:09;;;;;;;2.40;1.80;;;;;;;18.59;56.83;102637.50;4937388;28;20762;-69
2023/12/17 10:22:35;;;;;;;5.50;2.20;;;;;;;18.61;56.96;102634.31;4940076;28;20666;-69
2023/12/17 10:25:00;;;;;;;2.90;1.70;;;;;;;18.60;56.88;102636.31;4939915;28;20178;-69
2023/12/17 10:27:27;;;;;;;3.20;2.00;;;;;;;18.64;56.67;102628.78;4955893;28;20175;-69
2023/12/17 10:29:53;;;;;;;4.40;2.60;;;;;;;18.62;56.92;102624.56;4939904;28;20209;-69
2023/12/17 10:32:23;;;;;;;2.53;1.70;;;;;;;18.63;56.82;102626.25;4940122;28;20422;-68
2023/12/17 10:34:50;;;;;;;3.90;2.27;;;;;;;18.61;56.47;102620.84;4955213;28;20700;-69
2023/12/17 10:37:19;;;;;;;3.00;2.03;;;;;;;18.63;56.75;102617.66;4938981;28;20576;-69
2023/12/17 10:39:49;;;;;;;2.70;1.73;;;;;;;18.62;56.48;102616.81;4971352;28;20445;-69
2023/12/17 10:42:16;;;;;;;3.17;1.70;;;;;;;18.61;56.55;102609.41;4954935;28;20504;-69
2023/12/17 10:44:42;;;;;;;3.17;2.00;;;;;;;18.64;56.54;102600.19;4954020;28;20441;-68
2023/12/17 10:47:07;;;;;;;3.50;1.90;;;;;;;18.61;56.66;102600.81;4920079;29;20431;-71
2023/12/17 10:49:32;;;;;;;3.10;1.83;;;;;;;18.59;57.14;102594.59;4919909;29;20270;-68
2023/12/17 10:51:58;;;;;;;2.33;1.50;;;;;;;18.61;56.47;102591.41;4923444;29;20187;-69
2023/12/17 10:54:23;;;;;;;2.30;1.50;;;;;;;18.65;56.67;102592.41;4921075;29;20218;-68
2023/12/17 10:56:51;;;;;;;3.23;1.90;;;;;;;18.64;56.78;102594.47;4923757;28;20187;-69
2023/12/17 10:59:24;;;;;;;3.40;1.80;;;;;;;18.63;56.44;102580.47;4920198;29;20167;-68
2023/12/17 11:01:50;;;;;;;2.47;1.70;;;;;;;18.63;56.67;102575.59;4921435;29;20426;-69
2023/12/17 11:04:16;;;;;;;2.93;2.07;;;;;;;18.63;56.89;102575.59;4908581;28;20577;-70
2023/12/17 11:06:41;;;;;;;2.40;1.73;;;;;;;18.60;57.03;102573.38;4932632;29;20567;-69
2023/12/17 11:09:07;;;;;;;3.63;2.50;;;;;;;18.59;57.10;102568.84;4936326;28;20202;-69
2023/12/17 11:11:32;;;;;;;2.83;1.70;;;;;;;18.61;56.98;102557.91;4918235;29;20202;-69
2023/12/17 11:13:59;;;;;;;2.43;1.60;;;;;;;18.63;56.88;102560.44;4929794;28;20761;-69
2023/12/17 11:16:25;;;;;;;3.60;2.00;;;;;;;18.63;56.47;102567.03;4938942;28;20186;-68